Time;durP1;ratioP1;P1;durP2;ratioP2;P2;SDS_P1;SDS_P2;PMS_P1;PMS_P2;Temp;Humidity;BMP_temperature;BMP_pressure;BME280_temperature;BME280_humidity;BME280_pressure;Samples;Min_cycle;Max_cycle;Signal;HPM_P1;HPM_P2
2021/05/26 00:02:31;;;;;;;14.60;3.50;;;12.00;99.90;;;;;;4947521;28;20196;-93
2021/05/26 00:05:09;;;;;;;19.93;9.77;;;11.90;99.90;;;;;;4958993;28;20186;-93
2021/05/26 00:07:41;;;;;;;14.90;3.03;;;11.80;99.90;;;;;;4951946;28;20189;-93
2021/05/26 00:10:32;;;;;;;14.63;4.10;;;11.80;99.90;;;;;;4950490;28;20186;-91
2021/05/26 00:13:09;;;;;;;16.93;3.87;;;11.90;99.90;;;;;;4950611;29;20221;-91
2021/05/26 00:15:54;;;;;;;11.43;3.77;;;11.90;99.90;;;;;;4952035;29;20226;-92
2021/05/26 00:18:21;;;;;;;14.83;3.30;;;11.70;99.90;;;;;;4951122;28;20242;-91
2021/05/26 00:20:47;;;;;;;10.77;3.00;;;11.80;99.90;;;;;;4960624;29;20650;-93
2021/05/26 00:23:14;;;;;;;14.37;2.97;;;11.70;99.90;;;;;;4939468;28;20171;-92
2021/05/26 00:25:40;;;;;;;10.07;2.40;;;11.60;99.90;;;;;;4939122;29;20193;-93
2021/05/26 00:28:10;;;;;;;10.10;2.63;;;11.60;99.90;;;;;;4938775;29;20197;-91
2021/05/26 00:30:43;;;;;;;8.77;2.27;;;11.50;99.90;;;;;;4939394;29;20295;-91
2021/05/26 00:33:09;;;;;;;7.47;1.73;;;11.50;99.90;;;;;;4944910;28;20182;-92
2021/05/26 00:35:44;;;;;;;8.47;1.93;;;11.60;99.90;;;;;;4937071;29;20219;-93
2021/05/26 00:38:21;;;;;;;;;;;;;;;;;;;;;
2021/05/26 00:41:02;;;;;;;7.80;1.90;;;11.50;99.90;;;;;;4958538;28;20708;-91
2021/05/26 00:43:32;;;;;;;3.30;1.33;;;11.40;99.90;;;;;;4949528;28;20191;-91
2021/05/26 00:46:00;;;;;;;3.53;1.77;;;11.20;99.90;;;;;;4939619;29;20678;-92
2021/05/26 00:48:26;;;;;;;6.20;1.70;;;11.20;99.90;;;;;;4954896;28;20279;-91
2021/05/26 00:50:56;;;;;;;5.60;1.90;;;11.10;99.90;;;;;;4939965;29;20276;-91
2021/05/26 00:53:24;;;;;;;4.37;0.93;;;11.10;99.90;;;;;;4949412;28;20194;-91
2021/05/26 00:55:50;;;;;;;4.33;1.30;;;11.10;99.90;;;;;;4958320;28;20639;-91
2021/05/26 00:58:15;;;;;;;1.60;1.00;;;11.20;99.90;;;;;;4940434;29;20191;-91
2021/05/26 01:00:42;;;;;;;3.30;1.10;;;11.20;99.90;;;;;;4943711;29;20195;-91
2021/05/26 01:03:08;;;;;;;4.13;1.17;;;11.20;99.90;;;;;;4938537;29;20188;-91
2021/05/26 01:05:39;;;;;;;2.77;1.20;;;11.20;99.90;;;;;;4941715;28;20194;-91
2021/05/26 01:08:05;;;;;;;4.90;1.40;;;11.10;99.90;;;;;;4942233;29;20245;-91
2021/05/26 01:10:33;;;;;;;6.03;1.77;;;11.20;99.90;;;;;;4953652;28;20189;-91
2021/05/26 01:13:01;;;;;;;4.83;1.73;;;11.30;99.90;;;;;;4961829;28;20194;-91
2021/05/26 01:15:28;;;;;;;1.20;0.83;;;11.40;99.90;;;;;;4948351;29;20206;-91
2021/05/26 01:18:16;;;;;;;3.80;1.40;;;11.50;99.90;;;;;;4942280;29;20308;-91
2021/05/26 01:20:44;;;;;;;5.00;1.37;;;11.40;99.90;;;;;;4960582;28;20197;-91
2021/05/26 01:23:10;;;;;;;1.43;1.00;;;11.50;99.90;;;;;;4942699;29;20550;-91
2021/05/26 01:25:38;;;;;;;2.87;1.20;;;11.50;99.90;;;;;;4942661;29;20191;-91
2021/05/26 01:28:09;;;;;;;3.67;1.27;;;11.50;99.90;;;;;;4942377;29;20207;-91
2021/05/26 01:30:37;;;;;;;2.50;1.10;;;11.30;99.90;;;;;;4953281;28;20256;-91
2021/05/26 01:33:06;;;;;;;4.43;0.97;;;11.50;99.90;;;;;;4957166;29;20191;-90
2021/05/26 01:35:33;;;;;;;3.80;1.33;;;11.50;99.90;;;;;;4956711;29;20213;-91
2021/05/26 01:38:03;;;;;;;3.30;1.00;;;11.50;99.90;;;;;;4965765;28;20210;-91
2021/05/26 01:40:30;;;;;;;4.00;1.47;;;11.50;99.90;;;;;;4967098;28;20201;-90
2021/05/26 01:43:07;;;;;;;3.77;1.60;;;11.70;99.90;;;;;;4953847;29;20187;-91
2021/05/26 01:45:32;;;;;;;6.20;1.97;;;11.70;99.90;;;;;;4942875;29;20187;-91
2021/05/26 01:47:58;;;;;;;6.23;2.20;;;11.70;99.90;;;;;;4942546;29;20695;-91
2021/05/26 01:50:24;;;;;;;5.43;1.83;;;11.70;99.90;;;;;;4949012;28;20213;-90
2021/05/26 01:53:05;;;;;;;7.57;2.13;;;11.70;99.90;;;;;;4950634;29;20191;-91
2021/05/26 01:55:43;;;;;;;;;;;;;;;;;;;;;
2021/05/26 01:58:09;;;;;;;4.70;1.60;;;11.60;99.90;;;;;;4975730;28;20196;-91
2021/05/26 02:00:37;;;;;;;4.30;1.70;;;11.60;99.90;;;;;;4943299;28;20271;-91
2021/05/26 02:03:03;;;;;;;3.53;2.30;;;11.50;99.90;;;;;;4941828;29;20229;-91
2021/05/26 02:05:31;;;;;;;5.10;2.37;;;11.30;99.90;;;;;;4941652;29;20652;-91
2021/05/26 02:08:00;;;;;;;2.33;1.50;;;11.30;99.90;;;;;;4957301;28;20187;-91
2021/05/26 02:13:11;;;;;;;5.33;1.83;;;11.30;99.90;;;;;;4940744;28;20206;-91
2021/05/26 02:15:38;;;;;;;6.23;1.63;;;11.10;99.90;;;;;;4939182;29;20304;-91
2021/05/26 02:18:07;;;;;;;5.57;1.40;;;11.10;99.90;;;;;;4939403;29;20184;-91
2021/05/26 02:20:32;;;;;;;7.80;2.27;;;11.10;99.90;;;;;;4972874;28;20554;-92
2021/05/26 02:22:58;;;;;;;6.43;1.43;;;11.40;99.90;;;;;;4941456;29;20246;-93
2021/05/26 02:25:27;;;;;;;3.67;1.37;;;11.30;99.90;;;;;;4937995;29;20197;-91
2021/05/26 02:28:02;;;;;;;4.37;1.63;;;11.20;99.90;;;;;;4940503;28;20194;-93
2021/05/26 02:30:28;;;;;;;2.83;1.70;;;11.10;99.90;;;;;;4939664;29;20190;-91
2021/05/26 02:32:56;;;;;;;3.97;1.50;;;11.00;99.90;;;;;;4941299;29;20270;-91
2021/05/26 02:35:31;;;;;;;3.37;1.50;;;11.00;99.90;;;;;;4945354;28;20255;-90
2021/05/26 02:37:59;;;;;;;5.13;1.70;;;11.10;99.90;;;;;;4945921;29;20207;-91
2021/05/26 02:40:32;;;;;;;6.23;1.97;;;11.10;99.90;;;;;;4953950;28;20199;-91
2021/05/26 02:43:03;;;;;;;5.90;1.70;;;11.10;99.90;;;;;;4946783;29;20223;-91
2021/05/26 02:45:30;;;;;;;4.30;1.87;;;10.90;99.90;;;;;;4939475;28;20723;-91
2021/05/26 02:47:58;;;;;;;7.97;2.00;;;10.90;99.90;;;;;;4939924;29;20653;-91
2021/05/26 02:50:25;;;;;;;3.03;2.33;;;11.00;99.90;;;;;;4940227;29;20278;-91
2021/05/26 02:52:52;;;;;;;4.93;2.33;;;11.00;99.90;;;;;;4940450;29;20198;-91
2021/05/26 02:55:26;;;;;;;6.00;2.50;;;11.00;99.90;;;;;;4938801;29;20683;-91
2021/05/26 02:57:52;;;;;;;4.67;2.67;;;11.20;99.90;;;;;;4938557;29;20192;-93
2021/05/26 03:00:23;;;;;;;5.17;2.60;;;11.20;99.90;;;;;;4939793;29;20204;-91
2021/05/26 03:02:52;;;;;;;6.13;2.70;;;11.20;99.90;;;;;;4955580;29;20193;-91
2021/05/26 03:05:27;;;;;;;6.80;2.80;;;11.40;99.90;;;;;;4955906;29;20191;-91
2021/05/26 03:07:55;;;;;;;3.97;2.83;;;11.40;99.90;;;;;;4939550;29;20186;-91
2021/05/26 03:10:26;;;;;;;7.37;2.87;;;11.20;99.90;;;;;;4939945;29;20605;-91
2021/05/26 03:12:59;;;;;;;5.27;2.80;;;11.20;99.90;;;;;;4938387;29;20191;-92
2021/05/26 03:15:25;;;;;;;6.50;3.20;;;11.20;99.90;;;;;;4955724;28;20219;-93
2021/05/26 03:17:58;;;;;;;4.87;2.80;;;11.30;99.90;;;;;;4938815;29;20656;-93
2021/05/26 03:20:25;;;;;;;8.43;3.50;;;11.30;99.90;;;;;;4955482;28;20187;-93
2021/05/26 03:22:50;;;;;;;8.57;4.20;;;11.30;99.90;;;;;;4954455;28;20594;-93
2021/05/26 03:25:25;;;;;;;8.43;4.33;;;11.20;99.90;;;;;;4938787;29;20195;-91
2021/05/26 03:27:59;;;;;;;7.97;3.50;;;11.20;99.90;;;;;;4940027;28;20674;-91
2021/05/26 03:30:33;;;;;;;10.87;4.47;;;11.00;99.90;;;;;;4938244;29;20592;-91
2021/05/26 03:36:57;;;;;;;9.93;3.47;;;11.00;99.90;;;;;;4954379;28;20233;-91
2021/05/26 03:39:30;;;;;;;9.63;4.43;;;11.00;99.90;;;;;;4901206;29;20283;-91
2021/05/26 03:45:12;;;;;;;9.50;3.67;;;11.20;99.90;;;;;;4947713;28;20191;-91
2021/05/26 03:51:15;;;;;;;5.97;2.90;;;11.10;99.90;;;;;;4955477;28;20194;-90
2021/05/26 03:54:21;;;;;;;6.43;3.10;;;10.90;99.90;;;;;;4948326;29;20219;-91
2021/05/26 03:57:10;;;;;;;7.73;3.80;;;10.90;99.90;;;;;;4950637;29;20233;-93
2021/05/26 04:03:21;;;;;;;11.73;3.70;;;11.20;99.90;;;;;;4953428;28;20278;-91
2021/05/26 04:08:58;;;;;;;14.13;5.73;;;11.30;99.90;;;;;;4975967;28;20178;-91
2021/05/26 04:11:29;;;;;;;17.00;6.43;;;11.40;99.90;;;;;;4939181;29;20207;-91
2021/05/26 04:14:18;;;;;;;19.20;6.90;;;11.50;99.90;;;;;;4956382;28;20193;-91
2021/05/26 04:16:53;;;;;;;;;;;;;;;;;;;;;
2021/05/26 04:19:47;;;;;;;13.53;5.70;;;11.60;99.90;;;;;;4954620;28;20193;-93
2021/05/26 04:22:46;;;;;;;;;;;;;;;;;;;;;
2021/05/26 04:25:48;;;;;;;13.07;4.63;;;11.60;99.90;;;;;;4954748;29;20194;-92
2021/05/26 04:28:43;;;;;;;;;;;;;;;;;;;;;
2021/05/26 04:31:47;;;;;;;10.87;3.20;;;11.70;99.90;;;;;;4947274;28;20200;-92
2021/05/26 04:34:28;;;;;;;7.10;3.13;;;11.60;99.90;;;;;;4946688;28;20190;-92
2021/05/26 04:37:04;;;;;;;7.03;2.77;;;11.50;99.90;;;;;;4938554;29;20230;-92
2021/05/26 04:39:38;;;;;;;6.93;2.80;;;11.60;99.90;;;;;;4955970;28;20665;-93
2021/05/26 04:42:14;;;;;;;10.83;3.60;;;11.70;99.90;;;;;;4939917;29;20725;-92
2021/05/26 04:47:53;;;;;;;8.63;2.63;;;11.70;99.90;;;;;;4948232;28;20195;-92
2021/05/26 04:50:55;;;;;;;7.13;3.23;;;11.70;99.90;;;;;;4952430;29;20200;-92
2021/05/26 04:53:31;;;;;;;8.47;2.60;;;11.80;99.90;;;;;;4936752;29;20201;-92
2021/05/26 04:56:24;;;;;;;6.07;2.50;;;11.90;99.90;;;;;;4934174;29;20226;-93
2021/05/26 04:59:10;;;;;;;6.73;3.17;;;11.80;99.90;;;;;;4953266;28;20232;-92
2021/05/26 05:02:39;;;;;;;;;;;;;;;;;;;;;
2021/05/26 05:05:41;;;;;;;6.27;2.60;;;11.60;99.90;;;;;;4953653;28;20191;-92
2021/05/26 05:08:28;;;;;;;5.07;2.80;;;11.50;99.90;;;;;;4920113;29;20194;-93
2021/05/26 05:12:04;;;;;;;;;;;;;;;;;;;;;
2021/05/26 05:15:45;;;;;;;;;;;;;;;;;;;;;
2021/05/26 05:18:35;;;;;;;6.13;2.77;;;11.60;99.90;;;;;;4880362;29;20207;-92
2021/05/26 05:21:19;;;;;;;7.77;2.73;;;11.80;99.90;;;;;;4920065;29;20184;-93
2021/05/26 05:23:53;;;;;;;5.57;2.90;;;11.70;99.90;;;;;;4953704;29;20198;-92
2021/05/26 05:26:43;;;;;;;;;;;;;;;;;;;;;
2021/05/26 05:29:38;;;;;;;6.60;3.13;;;11.70;99.90;;;;;;4960718;28;20178;-93
2021/05/26 05:32:14;;;;;;;4.73;2.40;;;11.80;99.90;;;;;;4953803;29;20287;-93
2021/05/26 05:35:01;;;;;;;4.80;2.50;;;11.80;99.90;;;;;;4938246;29;20186;-92
2021/05/26 05:41:30;;;;;;;4.27;2.57;;;12.00;99.90;;;;;;4946059;28;20192;-93
2021/05/26 05:44:48;;;;;;;;;;;;;;;;;;;;;
2021/05/26 05:47:35;;;;;;;;;;;;;;;;;;;;;
2021/05/26 05:50:30;;;;;;;4.60;2.40;;;12.00;99.90;;;;;;4969363;28;20220;-92
2021/05/26 05:59:23;;;;;;;6.47;2.50;;;11.90;99.90;;;;;;4981902;28;20209;-93
2021/05/26 06:01:48;;;;;;;6.03;3.07;;;11.90;99.90;;;;;;4961955;28;20199;-92
2021/05/26 06:04:24;;;;;;;4.47;2.70;;;12.10;99.90;;;;;;4961442;28;20191;-92
2021/05/26 06:06:57;;;;;;;5.90;2.70;;;12.10;99.90;;;;;;4962220;28;20631;-92
2021/05/26 06:09:28;;;;;;;4.87;2.70;;;12.20;99.90;;;;;;4961606;28;20190;-92
2021/05/26 06:11:56;;;;;;;6.97;2.30;;;12.30;99.90;;;;;;4962010;28;20181;-92
2021/05/26 06:14:22;;;;;;;3.17;1.93;;;12.40;99.90;;;;;;4961522;28;20195;-92
2021/05/26 06:16:51;;;;;;;7.77;2.87;;;12.50;99.90;;;;;;4961283;28;20219;-92
2021/05/26 06:19:16;;;;;;;7.53;2.90;;;12.30;99.90;;;;;;4961095;28;20228;-92
2021/05/26 06:21:42;;;;;;;4.20;2.53;;;12.20;99.90;;;;;;4960961;28;20237;-92
2021/05/26 06:24:08;;;;;;;6.43;3.00;;;12.00;99.90;;;;;;4960357;28;20209;-92
2021/05/26 06:26:35;;;;;;;5.87;3.40;;;12.00;99.90;;;;;;4959984;28;20218;-91
2021/05/26 06:29:02;;;;;;;7.07;2.97;;;12.00;99.90;;;;;;4960589;28;20227;-92
2021/05/26 06:31:29;;;;;;;4.83;3.00;;;12.10;99.90;;;;;;4960290;28;20183;-92
2021/05/26 06:33:55;;;;;;;7.83;3.03;;;12.30;99.90;;;;;;4960953;28;20185;-90
2021/05/26 06:36:20;;;;;;;7.77;2.80;;;12.40;99.90;;;;;;4959806;28;20207;-92
2021/05/26 06:38:46;;;;;;;7.13;2.63;;;12.50;99.90;;;;;;4961759;28;20217;-92
2021/05/26 06:41:13;;;;;;;5.80;2.57;;;12.40;99.90;;;;;;4964443;28;20206;-90
2021/05/26 06:43:39;;;;;;;4.83;2.70;;;12.40;99.90;;;;;;4961348;28;20316;-92
2021/05/26 06:46:06;;;;;;;3.83;2.67;;;12.50;99.90;;;;;;4960074;28;20218;-90
2021/05/26 06:48:32;;;;;;;3.93;2.87;;;12.70;99.90;;;;;;4960628;28;20276;-92
2021/05/26 06:50:58;;;;;;;4.07;3.07;;;12.70;99.90;;;;;;4960099;28;20627;-92
2021/05/26 06:53:25;;;;;;;3.90;2.60;;;12.90;99.90;;;;;;4960300;28;20194;-91
2021/05/26 06:55:51;;;;;;;7.53;2.80;;;13.10;99.90;;;;;;4960031;28;20198;-92
2021/05/26 06:58:17;;;;;;;6.40;2.50;;;13.10;99.90;;;;;;4960355;28;20189;-92
2021/05/26 07:00:43;;;;;;;6.93;2.87;;;13.20;99.90;;;;;;4959236;28;20674;-90
2021/05/26 07:03:09;;;;;;;4.40;2.20;;;13.30;99.90;;;;;;4959152;28;20191;-93
2021/05/26 07:05:35;;;;;;;7.80;3.07;;;13.40;99.90;;;;;;4959081;28;20187;-90
2021/05/26 07:08:01;;;;;;;6.17;3.00;;;13.40;99.90;;;;;;4958809;28;20171;-92
2021/05/26 07:10:27;;;;;;;5.97;2.67;;;13.30;99.90;;;;;;4959683;28;20239;-90
2021/05/26 07:12:52;;;;;;;6.27;2.50;;;13.20;99.90;;;;;;4959984;28;20286;-90
2021/05/26 07:15:19;;;;;;;5.50;2.57;;;13.20;99.90;;;;;;4959965;28;20655;-90
2021/05/26 07:17:46;;;;;;;5.53;2.37;;;13.40;99.90;;;;;;4959950;28;20186;-90
2021/05/26 07:20:13;;;;;;;3.90;2.17;;;13.40;99.90;;;;;;4961808;28;20214;-90
2021/05/26 07:22:39;;;;;;;5.20;2.30;;;13.40;99.90;;;;;;4965085;28;20178;-90
2021/05/26 07:25:06;;;;;;;4.07;2.00;;;13.60;99.90;;;;;;4964141;28;20202;-90
2021/05/26 07:27:32;;;;;;;5.13;2.30;;;13.70;99.90;;;;;;4961960;28;20278;-90
2021/05/26 07:29:58;;;;;;;3.67;2.23;;;13.80;99.90;;;;;;4964763;28;20213;-92
2021/05/26 07:32:23;;;;;;;4.70;2.47;;;13.80;99.90;;;;;;4969496;28;20193;-92
2021/05/26 07:34:49;;;;;;;5.67;2.90;;;14.00;99.90;;;;;;4970817;28;20175;-90
2021/05/26 07:37:14;;;;;;;7.93;2.30;;;14.00;99.90;;;;;;4967186;28;20226;-91
2021/05/26 07:39:40;;;;;;;8.00;2.13;;;14.10;99.90;;;;;;4966153;28;20191;-90
2021/05/26 07:42:07;;;;;;;4.17;1.90;;;14.10;99.90;;;;;;4959725;28;20175;-90
2021/05/26 07:44:34;;;;;;;5.47;2.70;;;14.10;99.90;;;;;;4959517;28;20635;-90
2021/05/26 07:47:00;;;;;;;5.43;1.97;;;14.00;99.90;;;;;;4958612;28;20187;-90
2021/05/26 07:49:26;;;;;;;4.03;2.30;;;14.00;99.90;;;;;;4958583;28;20186;-91
2021/05/26 07:51:54;;;;;;;4.67;2.17;;;14.20;99.90;;;;;;4958240;28;20275;-90
2021/05/26 07:54:22;;;;;;;2.07;1.40;;;14.30;99.90;;;;;;4958656;28;20184;-91
2021/05/26 07:56:50;;;;;;;6.00;1.97;;;14.50;99.90;;;;;;4958125;28;20225;-90
2021/05/26 07:59:15;;;;;;;4.20;2.27;;;14.60;99.90;;;;;;4958663;28;20184;-90
2021/05/26 08:01:42;;;;;;;2.87;1.90;;;14.60;99.90;;;;;;4958570;28;20325;-91
2021/05/26 08:04:09;;;;;;;5.40;2.20;;;14.50;99.90;;;;;;4959249;28;20177;-90
2021/05/26 08:06:34;;;;;;;8.60;2.33;;;14.40;99.90;;;;;;4958472;28;20182;-90
2021/05/26 08:09:00;;;;;;;5.47;2.53;;;14.20;99.90;;;;;;4958876;28;20624;-90
2021/05/26 08:11:27;;;;;;;4.83;2.73;;;14.20;99.90;;;;;;4958411;28;20234;-91
2021/05/26 08:13:52;;;;;;;6.00;2.20;;;14.10;99.90;;;;;;4958553;28;20190;-90
2021/05/26 08:16:18;;;;;;;5.53;2.23;;;14.10;99.90;;;;;;4958334;28;20228;-90
2021/05/26 08:18:44;;;;;;;4.27;2.80;;;14.10;99.90;;;;;;4957729;28;20183;-90
2021/05/26 08:21:11;;;;;;;4.97;2.40;;;14.20;99.90;;;;;;4958247;28;20178;-90
2021/05/26 08:23:38;;;;;;;4.10;2.57;;;14.20;99.90;;;;;;4958128;28;20186;-90
2021/05/26 08:26:04;;;;;;;5.93;2.47;;;14.10;99.90;;;;;;4957995;28;20176;-90
2021/05/26 08:28:30;;;;;;;6.70;2.67;;;14.00;99.90;;;;;;4958320;28;20232;-90
2021/05/26 08:30:56;;;;;;;4.23;2.70;;;14.00;99.90;;;;;;4958300;28;20265;-90
2021/05/26 08:33:22;;;;;;;5.27;2.53;;;14.00;99.90;;;;;;4939106;29;20652;-90
2021/05/26 08:35:47;;;;;;;3.57;2.40;;;14.00;99.90;;;;;;4939109;29;20200;-90
2021/05/26 08:38:13;;;;;;;7.63;3.00;;;14.00;99.90;;;;;;4939012;29;20250;-90
2021/05/26 08:40:38;;;;;;;5.47;2.63;;;14.10;99.90;;;;;;4954542;28;20605;-90
2021/05/26 08:43:05;;;;;;;5.63;2.70;;;14.20;99.90;;;;;;4957666;28;20651;-90
2021/05/26 08:45:31;;;;;;;4.80;3.20;;;14.30;99.90;;;;;;4958122;28;20558;-90
2021/05/26 08:47:59;;;;;;;6.97;2.30;;;14.50;99.90;;;;;;4957993;28;20280;-90
2021/05/26 08:50:25;;;;;;;4.73;2.20;;;14.70;99.90;;;;;;4958424;28;20285;-90
2021/05/26 08:52:51;;;;;;;4.23;2.60;;;14.90;99.90;;;;;;4957243;28;20683;-91
2021/05/26 08:55:17;;;;;;;3.33;2.20;;;15.20;99.90;;;;;;4957453;28;20656;-90
2021/05/26 08:57:43;;;;;;;3.90;3.07;;;15.30;99.90;;;;;;4957650;28;20179;-90
2021/05/26 09:00:10;;;;;;;5.03;2.93;;;15.30;99.90;;;;;;4957406;28;20187;-90
2021/05/26 09:02:36;;;;;;;4.53;2.53;;;15.30;99.90;;;;;;4957961;28;20181;-90
2021/05/26 09:05:02;;;;;;;6.60;2.93;;;15.50;99.90;;;;;;4957941;28;20175;-90
2021/05/26 09:07:34;;;;;;;6.93;3.00;;;15.50;99.90;;;;;;4957947;28;20185;-90
2021/05/26 09:10:02;;;;;;;5.23;2.73;;;15.60;99.90;;;;;;4958254;28;20198;-90
2021/05/26 09:12:33;;;;;;;9.07;3.20;;;15.60;99.90;;;;;;4957909;28;20225;-90
2021/05/26 09:15:16;;;;;;;5.97;2.70;;;15.70;99.90;;;;;;4957324;28;20184;-90
2021/05/26 09:17:51;;;;;;;5.37;2.60;;;15.70;99.90;;;;;;4957121;28;20196;-90
2021/05/26 09:20:23;;;;;;;5.33;2.80;;;15.70;99.90;;;;;;4957234;28;20196;-90
2021/05/26 09:23:07;;;;;;;4.90;2.83;;;15.60;99.90;;;;;;4957609;28;20191;-90
2021/05/26 09:25:43;;;;;;;4.00;2.73;;;15.90;99.90;;;;;;4957480;28;20191;-90
2021/05/26 09:28:16;;;;;;;7.30;3.43;;;16.00;99.90;;;;;;4960775;28;20183;-90
2021/05/26 09:30:43;;;;;;;7.70;3.40;;;16.00;99.90;;;;;;4961074;28;20222;-90
2021/05/26 09:33:30;;;;;;;4.87;2.77;;;16.00;99.90;;;;;;4961083;28;20184;-90
2021/05/26 09:36:11;;;;;;;5.97;3.13;;;16.10;99.90;;;;;;4960695;28;20254;-90
2021/05/26 09:38:46;;;;;;;7.30;3.00;;;16.20;99.90;;;;;;4961811;28;20562;-90
2021/05/26 09:41:23;;;;;;;6.80;3.07;;;16.20;99.90;;;;;;4961134;28;20249;-90
2021/05/26 09:43:52;;;;;;;7.67;3.50;;;16.20;99.90;;;;;;4960753;28;20181;-90
2021/05/26 09:46:26;;;;;;;6.87;3.30;;;16.00;99.90;;;;;;4962191;28;20171;-90
2021/05/26 09:49:18;;;;;;;4.30;2.60;;;16.10;99.90;;;;;;4961534;28;20187;-90
2021/05/26 09:51:52;;;;;;;4.70;3.37;;;16.10;99.90;;;;;;4961521;28;20183;-90
2021/05/26 09:54:23;;;;;;;6.67;2.77;;;15.90;99.90;;;;;;4965226;28;20178;-90
2021/05/26 09:57:07;;;;;;;7.47;3.90;;;15.80;99.90;;;;;;4964936;28;20211;-90
2021/05/26 09:59:34;;;;;;;6.30;3.23;;;15.60;99.90;;;;;;4967236;28;20168;-93
2021/05/26 10:02:06;;;;;;;6.23;4.27;;;15.50;99.90;;;;;;4968427;28;20221;-90
2021/05/26 10:04:31;;;;;;;8.50;3.93;;;15.40;99.90;;;;;;4964411;28;20183;-90
2021/05/26 10:07:04;;;;;;;10.47;4.33;;;15.50;99.90;;;;;;4960731;28;20179;-92
2021/05/26 10:09:33;;;;;;;6.40;4.03;;;15.60;99.90;;;;;;4960510;28;20282;-92
2021/05/26 10:12:01;;;;;;;9.13;4.50;;;15.50;99.90;;;;;;4961678;28;20185;-90
2021/05/26 10:14:28;;;;;;;7.17;4.20;;;15.70;99.90;;;;;;4961773;28;20204;-91
2021/05/26 10:16:56;;;;;;;6.77;4.13;;;15.90;99.90;;;;;;4960175;28;20226;-90
2021/05/26 10:19:26;;;;;;;9.23;4.80;;;15.90;99.90;;;;;;4961393;28;20276;-90
2021/05/26 10:21:52;;;;;;;8.07;5.00;;;16.00;99.90;;;;;;4960621;28;20184;-91
2021/05/26 10:24:20;;;;;;;10.70;4.90;;;16.00;99.90;;;;;;4960986;28;20173;-90
2021/05/26 10:26:50;;;;;;;10.60;5.73;;;16.00;99.90;;;;;;4960000;28;20180;-90
2021/05/26 10:29:29;;;;;;;11.30;5.20;;;15.80;99.90;;;;;;4960840;28;20640;-90
2021/05/26 10:32:06;;;;;;;10.97;5.30;;;15.70;99.90;;;;;;4960593;28;20255;-90
2021/05/26 10:34:52;;;;;;;6.43;4.70;;;15.70;99.90;;;;;;4960928;28;20180;-90
2021/05/26 10:37:30;;;;;;;7.10;4.53;;;15.80;99.90;;;;;;4949631;28;20295;-90
2021/05/26 10:39:56;;;;;;;7.80;4.37;;;15.90;99.90;;;;;;4959696;28;20734;-90
2021/05/26 10:42:28;;;;;;;7.40;4.03;;;16.10;99.90;;;;;;4960008;28;20703;-90
2021/05/26 10:45:06;;;;;;;8.60;3.93;;;16.30;99.10;;;;;;4960281;28;20230;-90
2021/05/26 10:47:38;;;;;;;5.00;4.50;;;16.40;99.40;;;;;;4960116;28;20180;-90
2021/05/26 10:50:14;;;;;;;7.53;3.83;;;16.50;99.20;;;;;;4960652;28;20189;-90
2021/05/26 10:53:15;;;;;;;6.63;3.37;;;16.70;97.60;;;;;;4960347;28;20222;-90
2021/05/26 10:55:42;;;;;;;6.90;3.43;;;16.60;97.70;;;;;;4919702;29;20355;-90
2021/05/26 10:58:34;;;;;;;11.10;5.00;;;16.20;98.50;;;;;;4941068;29;20188;-90
2021/05/26 11:01:03;;;;;;;10.37;4.87;;;15.90;99.90;;;;;;4940854;29;20176;-90
2021/05/26 11:03:30;;;;;;;11.10;4.97;;;15.50;99.90;;;;;;4956987;29;20645;-92
2021/05/26 11:06:00;;;;;;;9.47;4.40;;;15.60;99.90;;;;;;4950931;28;20188;-93
2021/05/26 11:08:36;;;;;;;7.23;3.97;;;15.80;99.90;;;;;;4959688;28;20187;-90
2021/05/26 11:11:39;;;;;;;7.27;3.70;;;15.90;98.90;;;;;;4959505;28;20192;-92
2021/05/26 11:14:15;;;;;;;6.50;3.53;;;15.90;98.50;;;;;;4959265;28;20199;-92
2021/05/26 11:16:40;;;;;;;8.37;4.53;;;15.50;99.20;;;;;;4959592;28;20222;-92
2021/05/26 11:19:20;;;;;;;10.83;5.27;;;15.10;99.90;;;;;;4960025;28;20218;-92
2021/05/26 11:33:34;;;;;;;13.60;9.00;;;13.40;99.90;;;;;;5046179;22;20225;-92
2021/05/26 11:40:12;;;;;;;;;;;;;;;;;;;;;
2021/05/26 11:46:34;;;;;;;14.20;10.87;;;15.50;99.90;;;;;;4891855;29;20567;-92
2021/05/26 11:49:12;;;;;;;6.47;5.07;;;17.30;99.90;;;;;;4875491;29;20648;-91
2021/05/26 11:51:46;;;;;;;5.37;2.60;;;17.80;99.90;;;;;;4885902;29;20184;-91
2021/05/26 11:54:20;;;;;;;11.13;2.80;;;16.80;98.50;;;;;;4918609;29;20191;-91
2021/05/26 11:56:56;;;;;;;5.23;2.77;;;16.10;99.90;;;;;;4959141;28;20238;-91
2021/05/26 11:59:28;;;;;;;5.80;2.00;;;16.40;99.90;;;;;;4964000;28;20179;-91
2021/05/26 12:01:55;;;;;;;3.90;1.73;;;17.90;99.60;;;;;;4977861;28;20275;-92
2021/05/26 12:04:21;;;;;;;6.10;1.87;;;18.90;96.40;;;;;;4959081;28;20667;-92
2021/05/26 12:06:48;;;;;;;4.47;1.77;;;20.10;93.70;;;;;;4973825;28;20175;-92
2021/05/26 12:09:30;;;;;;;4.60;1.07;;;20.20;91.40;;;;;;4978051;28;20175;-92
2021/05/26 12:11:57;;;;;;;4.67;1.50;;;19.70;92.10;;;;;;4980104;28;20178;-91
2021/05/26 12:14:31;;;;;;;3.73;1.50;;;18.90;92.60;;;;;;4963603;28;20284;-92
2021/05/26 12:16:59;;;;;;;4.90;2.30;;;18.10;96.20;;;;;;4977188;28;20217;-91
2021/05/26 12:19:32;;;;;;;7.80;2.30;;;17.10;98.30;;;;;;4987998;28;20181;-92
2021/05/26 12:22:23;;;;;;;5.03;3.10;;;15.70;99.90;;;;;;4990968;28;20182;-91
2021/05/26 12:24:59;;;;;;;4.77;3.07;;;15.00;99.90;;;;;;4968733;28;20187;-91
2021/05/26 12:27:31;;;;;;;8.63;4.87;;;14.70;99.90;;;;;;4944578;29;20176;-91
2021/05/26 12:30:26;;;;;;;7.57;3.70;;;14.60;99.90;;;;;;4956844;28;20184;-91
2021/05/26 12:33:11;;;;;;;7.93;4.13;;;15.10;99.90;;;;;;4958611;28;20205;-91
2021/05/26 12:35:37;;;;;;;3.13;2.47;;;16.80;99.90;;;;;;4963585;28;20180;-92
2021/05/26 12:38:23;;;;;;;4.63;2.27;;;18.10;98.30;;;;;;4963913;28;20208;-91
2021/05/26 12:40:49;;;;;;;5.77;2.60;;;18.20;97.00;;;;;;4963234;28;20177;-91
2021/05/26 12:43:31;;;;;;;3.07;2.43;;;18.10;97.40;;;;;;4967424;28;20207;-91
2021/05/26 12:45:59;;;;;;;4.27;2.80;;;18.10;97.00;;;;;;4977986;28;20192;-91
2021/05/26 12:48:29;;;;;;;5.07;2.50;;;19.30;96.00;;;;;;4977413;28;20215;-91
2021/05/26 12:51:00;;;;;;;9.60;7.17;;;20.40;94.80;;;;;;4963498;28;20548;-91
2021/05/26 12:53:33;;;;;;;4.57;1.90;;;21.10;93.70;;;;;;4959516;28;20212;-92
2021/05/26 12:56:02;;;;;;;4.03;1.40;;;22.50;91.40;;;;;;4971366;28;20218;-91
2021/05/26 12:58:28;;;;;;;3.63;1.87;;;23.30;88.20;;;;;;4976857;28;20189;-91
2021/05/26 13:01:07;;;;;;;2.87;1.60;;;22.40;83.80;;;;;;4959267;28;20190;-91
2021/05/26 13:03:36;;;;;;;4.10;1.07;;;21.90;82.10;;;;;;4960265;28;20182;-90
2021/05/26 13:06:13;;;;;;;4.20;2.40;;;22.20;80.40;;;;;;4962974;28;20182;-91
2021/05/26 13:08:39;;;;;;;3.30;1.20;;;21.90;81.10;;;;;;4978450;28;20239;-91
2021/05/26 13:11:07;;;;;;;4.87;1.10;;;21.20;82.10;;;;;;4941195;29;20193;-91
2021/05/26 13:13:33;;;;;;;3.27;1.70;;;20.30;83.50;;;;;;4949438;28;20178;-91
2021/05/26 13:16:00;;;;;;;2.60;1.00;;;19.70;84.30;;;;;;4976774;28;20697;-91
2021/05/26 13:18:28;;;;;;;3.47;0.90;;;19.30;85.60;;;;;;4957971;28;20184;-91
2021/05/26 13:20:56;;;;;;;3.00;2.10;;;18.60;84.30;;;;;;4957786;28;20640;-91
2021/05/26 13:23:22;;;;;;;3.83;1.77;;;17.80;88.70;;;;;;4965608;28;20597;-91
2021/05/26 13:25:55;;;;;;;5.47;1.93;;;17.40;90.80;;;;;;4974297;28;20228;-90
2021/05/26 13:28:21;;;;;;;3.00;1.87;;;17.00;92.20;;;;;;4957932;28;20668;-91
2021/05/26 13:30:49;;;;;;;4.63;2.13;;;16.70;93.20;;;;;;4957989;28;20197;-91
2021/05/26 13:33:16;;;;;;;4.63;2.40;;;16.80;93.70;;;;;;4963717;28;20192;-91
2021/05/26 13:35:42;;;;;;;2.57;1.90;;;16.90;93.50;;;;;;4975337;28;20197;-91
2021/05/26 13:38:10;;;;;;;1.90;1.70;;;17.20;93.80;;;;;;4977471;28;20181;-91
2021/05/26 13:40:37;;;;;;;4.20;2.07;;;17.70;93.40;;;;;;4976961;28;20194;-91
2021/05/26 13:43:04;;;;;;;4.10;2.80;;;18.10;92.50;;;;;;4958221;28;20187;-92
2021/05/26 13:45:30;;;;;;;5.83;2.70;;;18.50;91.70;;;;;;4957746;28;20185;-90
2021/05/26 13:47:57;;;;;;;5.43;3.70;;;18.60;91.00;;;;;;4957761;28;20188;-91
2021/05/26 13:50:25;;;;;;;5.77;3.00;;;18.80;90.90;;;;;;4957470;28;20579;-91
2021/05/26 13:52:53;;;;;;;4.80;2.90;;;18.60;91.00;;;;;;4972765;28;20178;-91
2021/05/26 13:55:21;;;;;;;4.50;2.87;;;18.30;91.00;;;;;;4975284;28;20204;-91
2021/05/26 13:57:50;;;;;;;3.60;2.20;;;18.70;90.70;;;;;;4973628;28;20243;-91
2021/05/26 14:00:16;;;;;;;2.37;1.83;;;20.20;88.50;;;;;;4974184;28;20260;-91
2021/05/26 14:02:42;;;;;;;2.80;2.23;;;20.70;84.20;;;;;;4970302;28;20651;-91
2021/05/26 14:05:10;;;;;;;6.60;2.27;;;20.20;85.40;;;;;;4957752;28;20229;-91
2021/05/26 14:07:36;;;;;;;2.20;1.83;;;19.50;86.30;;;;;;4962200;28;20237;-90
2021/05/26 14:10:04;;;;;;;3.37;2.43;;;18.20;86.40;;;;;;4958930;28;20231;-90
2021/05/26 14:12:31;;;;;;;3.20;2.70;;;17.40;89.40;;;;;;4965425;28;20278;-91
2021/05/26 14:14:56;;;;;;;7.67;3.63;;;17.00;91.20;;;;;;4978971;28;20237;-91
2021/05/26 14:17:23;;;;;;;8.63;3.90;;;16.80;93.30;;;;;;4971800;28;20226;-90
2021/05/26 14:19:49;;;;;;;7.47;3.70;;;16.80;94.30;;;;;;4961685;28;20179;-91
2021/05/26 14:22:16;;;;;;;6.60;4.00;;;16.90;94.30;;;;;;4962028;28;20190;-90